Oval Lp No.11 — JL6306 — position and weather

sailwx.info

Track history (hours):
 
Tides and Currents Weather Stations Pressure Air Temp Water Temp Dewpoint Dewpoint Depression Visibility Wind Speed Wind Dir Waves Ship Positions

Oval Lp No.11

Last reported at 2016-Aug-27 07:23 UTC. Time now 2016-Aug-28 19:00 UTC.
Position N 34°02' E 135°00'.

Length 67 m; draft 3.6 m.

Type: Ship (hazmat cat A). MMSI: 431500366.

Date/timePositionNaut miles runAvg speedWind from/ knotsBaromVisibWave heightAir tempDewpointWater temp
2016-Aug-27 07:23N 34°02' E 135°00'1012.3
2016-Aug-27 06:33N 34°12' E 134°59'2210.9
2016-Aug-27 04:33N 34°30' E 135°13'1111.3
2016-Aug-27 03:33N 34°36' E 135°25'1 0.4
2016-Aug-27 00:08N 34°34' E 135°26'4 6.1
2016-Aug-26 23:33N 34°35' E 135°21'1211.5
2016-Aug-26 22:32N 34°27' E 135°11'1111.2
2016-Aug-26 21:33N 34°19' E 135°01'1010.5
2016-Aug-26 20:34N 34°09' E 135°01'9 0.2
2016-Aug-25 06:13N 33°60' E 135°01'1911.2
2016-Aug-25 04:33N 34°18' E 134°59'1110.6
2016-Aug-25 03:33N 34°26' E 135°07'1212.1
2016-Aug-25 02:33N 34°34' E 135°19'6 1.4
2016-Aug-24 22:31N 34°34' E 135°26'3 1.8
2016-Aug-24 21:07N 34°36' E 135°23'0 0.0
2016-Aug-24 20:25N 34°36' E 135°23'0 0.0
2016-Aug-24 19:31N 34°36' E 135°23'0 0.0
2016-Aug-24 17:25N 34°36' E 135°23'0 0.0
2016-Aug-24 16:31N 34°36' E 135°23'0 0.0
2016-Aug-24 15:31N 34°36' E 135°23'0 0.0
2016-Aug-24 13:25N 34°36' E 135°23'0 0.0
2016-Aug-24 12:31N 34°36' E 135°23'0 0.0
2016-Aug-24 11:31N 34°36' E 135°23'4 3.6
2016-Aug-24 10:32N 34°34' E 135°20'1111.6
2016-Aug-24 09:33N 34°26' E 135°10'1111.1
2016-Aug-24 08:33N 34°18' E 134°60'1110.5
2016-Aug-24 07:33N 34°08' E 135°01'229 9.8
2016-Aug-23 08:10N 35°02' E 139°31'811.4
2016-Aug-23 07:30N 35°06' E 139°39'1111.3
2016-Aug-23 06:33N 35°15' E 139°46'1010.3
2016-Aug-23 05:34N 35°25' E 139°43'1111.2
2016-Aug-23 04:33N 35°31' E 139°55'8 8.4
2016-Aug-23 03:34N 35°33' E 140°05'0 0.0
2016-Aug-23 02:33N 35°33' E 140°05'0 0.0
2016-Aug-23 01:32N 35°33' E 140°05'0 0.0
2016-Aug-23 00:32N 35°33' E 140°05'0 0.1
2016-Aug-22 23:33N 35°33' E 140°05'7 7.4
2016-Aug-22 22:34N 35°30' E 139°57'2 2.1
2016-Aug-22 21:29N 35°28' E 139°56'0 0.0
2016-Aug-22 20:32N 35°28' E 139°56'0 0.0
2016-Aug-22 19:32N 35°28' E 139°56'0 0.0
2016-Aug-22 18:29N 35°28' E 139°56'0 0.1
2016-Aug-22 17:32N 35°28' E 139°56'0 0.0
2016-Aug-22 16:29N 35°28' E 139°56'0 0.0
2016-Aug-22 15:32N 35°28' E 139°56'0 0.0
2016-Aug-22 14:32N 35°28' E 139°56'0 0.1
2016-Aug-22 13:33N 35°28' E 139°56'0 0.0
2016-Aug-22 12:29N 35°28' E 139°56'0 0.0
2016-Aug-22 11:30N 35°28' E 139°56'0 0.0
2016-Aug-22 10:29N 35°28' E 139°56'0 0.0
2016-Aug-22 09:13N 35°28' E 139°56'0 0.1
2016-Aug-22 08:27N 35°28' E 139°56'0 0.0
2016-Aug-22 07:33N 35°28' E 139°56'0 0.0
2016-Aug-22 06:31N 35°28' E 139°56'0 0.0
2016-Aug-22 05:31N 35°28' E 139°56'0 0.2
2016-Aug-22 04:34N 35°28' E 139°55'0 0.0
2016-Aug-22 03:29N 35°28' E 139°55'0 0.0
2016-Aug-22 02:29N 35°28' E 139°55'0 0.0
2016-Aug-22 01:26N 35°28' E 139°55'0 0.0
2016-Aug-22 00:32N 35°28' E 139°55'0 0.0
2016-Aug-21 23:33N 35°28' E 139°55'0 0.0
2016-Aug-21 22:29N 35°28' E 139°55'0 0.0
2016-Aug-21 21:33N 35°28' E 139°55'0 0.0
2016-Aug-21 20:32N 35°28' E 139°55'0 0.0
2016-Aug-21 19:24N 35°28' E 139°55'0 0.0
2016-Aug-21 18:29N 35°28' E 139°55'0 0.0
2016-Aug-21 17:22N 35°28' E 139°55'0 0.0
2016-Aug-21 16:33N 35°28' E 139°55'0 0.0
2016-Aug-21 15:28N 35°28' E 139°55'0 0.0
2016-Aug-21 14:31N 35°28' E 139°55'0 0.0
2016-Aug-21 13:31N 35°28' E 139°55'0 0.0
2016-Aug-21 12:33N 35°28' E 139°55'0 0.0
2016-Aug-21 11:32N 35°28' E 139°55'0 0.0
2016-Aug-21 10:28N 35°28' E 139°55'0 0.0
2016-Aug-21 09:32N 35°28' E 139°55'0 0.0
2016-Aug-21 08:32N 35°28' E 139°55'0 0.0
2016-Aug-21 07:29N 35°28' E 139°55'0 0.2
2016-Aug-21 06:34N 35°28' E 139°55'1111.1
2016-Aug-21 05:33N 35°21' E 139°45'1111.2
2016-Aug-21 04:33N 35°10' E 139°46'7211.4
2016-Aug-20 22:16N 34°33' E 138°31'178 4.5
2016-Aug-19 06:17N 33°56' E 135°00'1013.3
2016-Aug-19 05:32N 34°06' E 134°59'1414.3
2016-Aug-19 04:33N 34°20' E 134°60'1313.3
2016-Aug-19 03:33N 34°29' E 135°12'1212.1
2016-Aug-19 02:33N 34°36' E 135°23'3 2.4
2016-Aug-19 01:25N 34°34' E 135°26'0 0.0
2016-Aug-19 00:31N 34°34' E 135°26'0 0.0
2016-Aug-18 23:25N 34°34' E 135°26'3 3.9
2016-Aug-18 22:33N 34°35' E 135°22'1111.5
2016-Aug-18 21:33N 34°28' E 135°11'1411.5
2016-Aug-18 20:21N 34°17' E 134°60'911.1
2016-Aug-18 19:34N 34°09' E 135°00'  
Track history (hours):
 
Tides and Currents Weather Stations Pressure Air Temp Water Temp Dewpoint Dewpoint Depression Visibility Wind Speed Wind Dir Waves Ship Positions

Oval Lp No.11

Last reported at 2016-Aug-27 07:23 UTC. Time now 2016-Aug-28 19:00 UTC.
Position N 34°02' E 135°00'.

Length 67 m; draft 3.6 m.

Type: Ship (hazmat cat A). MMSI: 431500366.

Date/timePositionNaut miles runAvg speedWind from/ knotsBaromVisibWave heightAir tempDewpointWater temp
2016-Aug-27 07:23N 34°02' E 135°00'1012.3
2016-Aug-27 06:33N 34°12' E 134°59'2210.9
2016-Aug-27 04:33N 34°30' E 135°13'1111.3
2016-Aug-27 03:33N 34°36' E 135°25'1 0.4
2016-Aug-27 00:08N 34°34' E 135°26'4 6.1
2016-Aug-26 23:33N 34°35' E 135°21'1211.5
2016-Aug-26 22:32N 34°27' E 135°11'1111.2
2016-Aug-26 21:33N 34°19' E 135°01'1010.5
2016-Aug-26 20:34N 34°09' E 135°01'9 0.2
2016-Aug-25 06:13N 33°60' E 135°01'1911.2
2016-Aug-25 04:33N 34°18' E 134°59'1110.6
2016-Aug-25 03:33N 34°26' E 135°07'1212.1
2016-Aug-25 02:33N 34°34' E 135°19'6 1.4
2016-Aug-24 22:31N 34°34' E 135°26'3 1.8
2016-Aug-24 21:07N 34°36' E 135°23'0 0.0
2016-Aug-24 20:25N 34°36' E 135°23'0 0.0
2016-Aug-24 19:31N 34°36' E 135°23'0 0.0
2016-Aug-24 17:25N 34°36' E 135°23'0 0.0
2016-Aug-24 16:31N 34°36' E 135°23'0 0.0
2016-Aug-24 15:31N 34°36' E 135°23'0 0.0
2016-Aug-24 13:25N 34°36' E 135°23'0 0.0
2016-Aug-24 12:31N 34°36' E 135°23'0 0.0
2016-Aug-24 11:31N 34°36' E 135°23'4 3.6
2016-Aug-24 10:32N 34°34' E 135°20'1111.6
2016-Aug-24 09:33N 34°26' E 135°10'1111.1
2016-Aug-24 08:33N 34°18' E 134°60'1110.5
2016-Aug-24 07:33N 34°08' E 135°01'229 9.8
2016-Aug-23 08:10N 35°02' E 139°31'811.4
2016-Aug-23 07:30N 35°06' E 139°39'1111.3
2016-Aug-23 06:33N 35°15' E 139°46'1010.3
2016-Aug-23 05:34N 35°25' E 139°43'1111.2
2016-Aug-23 04:33N 35°31' E 139°55'8 8.4
2016-Aug-23 03:34N 35°33' E 140°05'0 0.0
2016-Aug-23 02:33N 35°33' E 140°05'0 0.0
2016-Aug-23 01:32N 35°33' E 140°05'0 0.0
2016-Aug-23 00:32N 35°33' E 140°05'0 0.1
2016-Aug-22 23:33N 35°33' E 140°05'7 7.4
2016-Aug-22 22:34N 35°30' E 139°57'2 2.1
2016-Aug-22 21:29N 35°28' E 139°56'0 0.0
2016-Aug-22 20:32N 35°28' E 139°56'0 0.0
2016-Aug-22 19:32N 35°28' E 139°56'0 0.0
2016-Aug-22 18:29N 35°28' E 139°56'0 0.1
2016-Aug-22 17:32N 35°28' E 139°56'0 0.0
2016-Aug-22 16:29N 35°28' E 139°56'0 0.0
2016-Aug-22 15:32N 35°28' E 139°56'0 0.0
2016-Aug-22 14:32N 35°28' E 139°56'0 0.1
2016-Aug-22 13:33N 35°28' E 139°56'0 0.0
2016-Aug-22 12:29N 35°28' E 139°56'0 0.0
2016-Aug-22 11:30N 35°28' E 139°56'0 0.0
2016-Aug-22 10:29N 35°28' E 139°56'0 0.0
2016-Aug-22 09:13N 35°28' E 139°56'0 0.1
2016-Aug-22 08:27N 35°28' E 139°56'0 0.0
2016-Aug-22 07:33N 35°28' E 139°56'0 0.0
2016-Aug-22 06:31N 35°28' E 139°56'0 0.0
2016-Aug-22 05:31N 35°28' E 139°56'0 0.2
2016-Aug-22 04:34N 35°28' E 139°55'0 0.0
2016-Aug-22 03:29N 35°28' E 139°55'0 0.0
2016-Aug-22 02:29N 35°28' E 139°55'0 0.0
2016-Aug-22 01:26N 35°28' E 139°55'0 0.0
2016-Aug-22 00:32N 35°28' E 139°55'0 0.0
2016-Aug-21 23:33N 35°28' E 139°55'0 0.0
2016-Aug-21 22:29N 35°28' E 139°55'0 0.0
2016-Aug-21 21:33N 35°28' E 139°55'0 0.0
2016-Aug-21 20:32N 35°28' E 139°55'0 0.0
2016-Aug-21 19:24N 35°28' E 139°55'0 0.0
2016-Aug-21 18:29N 35°28' E 139°55'0 0.0
2016-Aug-21 17:22N 35°28' E 139°55'0 0.0
2016-Aug-21 16:33N 35°28' E 139°55'0 0.0
2016-Aug-21 15:28N 35°28' E 139°55'0 0.0
2016-Aug-21 14:31N 35°28' E 139°55'0 0.0
2016-Aug-21 13:31N 35°28' E 139°55'0 0.0
2016-Aug-21 12:33N 35°28' E 139°55'0 0.0
2016-Aug-21 11:32N 35°28' E 139°55'0 0.0
2016-Aug-21 10:28N 35°28' E 139°55'0 0.0
2016-Aug-21 09:32N 35°28' E 139°55'0 0.0
2016-Aug-21 08:32N 35°28' E 139°55'0 0.0
2016-Aug-21 07:29N 35°28' E 139°55'0 0.2
2016-Aug-21 06:34N 35°28' E 139°55'1111.1
2016-Aug-21 05:33N 35°21' E 139°45'1111.2
2016-Aug-21 04:33N 35°10' E 139°46'7211.4
2016-Aug-20 22:16N 34°33' E 138°31'178 4.5
2016-Aug-19 06:17N 33°56' E 135°00'1013.3
2016-Aug-19 05:32N 34°06' E 134°59'1414.3
2016-Aug-19 04:33N 34°20' E 134°60'1313.3
2016-Aug-19 03:33N 34°29' E 135°12'1212.1
2016-Aug-19 02:33N 34°36' E 135°23'3 2.4
2016-Aug-19 01:25N 34°34' E 135°26'0 0.0
2016-Aug-19 00:31N 34°34' E 135°26'0 0.0
2016-Aug-18 23:25N 34°34' E 135°26'3 3.9
2016-Aug-18 22:33N 34°35' E 135°22'1111.5
2016-Aug-18 21:33N 34°28' E 135°11'1411.5
2016-Aug-18 20:21N 34°17' E 134°60'911.1
2016-Aug-18 19:34N 34°09' E 135°00'  

Dump ship's entire track history